createdAt,value
2023-01-06T00:01:35.068Z,1.35
2023-01-06T00:04:03.356Z,2.28
2023-01-06T00:06:31.841Z,2.40
2023-01-06T00:09:02.619Z,1.70
2023-01-06T00:11:33.339Z,2.20
2023-01-06T00:14:01.216Z,2.20
2023-01-06T00:16:28.368Z,1.70
2023-01-06T00:18:58.041Z,1.42
2023-01-06T00:21:25.913Z,1.30
2023-01-06T00:23:53.352Z,2.03
2023-01-06T00:26:20.712Z,1.63
2023-01-06T00:28:48.224Z,2.00
2023-01-06T00:31:17.407Z,1.90
2023-01-06T00:33:44.807Z,1.65
2023-01-06T00:36:14.524Z,2.35
2023-01-06T00:38:41.813Z,1.75
2023-01-06T00:41:31.385Z,1.85
2023-01-06T00:43:59.479Z,2.80
2023-01-06T00:46:31.124Z,2.25
2023-01-06T00:49:05.072Z,2.08
2023-01-06T00:51:38.751Z,2.33
2023-01-06T00:54:08.432Z,1.90
2023-01-06T00:56:45.440Z,2.10
2023-01-06T00:59:15.435Z,1.88
2023-01-06T01:01:44.540Z,1.92
2023-01-06T01:04:12.887Z,1.45
2023-01-06T01:06:45.083Z,2.00
2023-01-06T01:09:22.887Z,2.05
2023-01-06T01:12:09.596Z,1.75
2023-01-06T01:14:46.925Z,1.73
2023-01-06T01:17:28.288Z,1.85
2023-01-06T01:19:57.805Z,2.53
2023-01-06T01:22:27.858Z,1.42
2023-01-06T01:24:54.998Z,2.20
2023-01-06T01:27:22.137Z,1.75
2023-01-06T01:29:49.356Z,1.70
2023-01-06T01:32:16.615Z,2.30
2023-01-06T01:34:43.922Z,1.65
2023-01-06T01:37:11.095Z,2.40
2023-01-06T01:39:38.186Z,1.73
2023-01-06T01:42:07.303Z,2.10
2023-01-06T01:45:18.550Z,2.03
2023-01-06T01:48:01.132Z,2.00
2023-01-06T01:50:42.172Z,2.63
2023-01-06T01:53:26.176Z,2.80
2023-01-06T01:55:58.897Z,2.00
2023-01-06T01:58:33.700Z,2.10
2023-01-06T02:01:01.322Z,1.87
2023-01-06T02:03:28.579Z,2.05
2023-01-06T02:06:00.888Z,1.73
2023-01-06T02:09:05.150Z,2.13
2023-01-06T02:11:36.183Z,2.15
2023-01-06T02:14:18.963Z,2.30
2023-01-06T02:17:21.267Z,2.97
2023-01-06T02:20:16.634Z,2.00
2023-01-06T02:23:11.338Z,2.00
2023-01-06T02:26:13.499Z,1.90
2023-01-06T02:29:13.949Z,1.83
2023-01-06T02:32:20.393Z,2.08
2023-01-06T02:35:26.439Z,1.65
2023-01-06T02:38:18.346Z,2.42
2023-01-06T02:41:12.734Z,2.00
2023-01-06T02:44:29.302Z,1.75
2023-01-06T02:46:59.105Z,2.03
2023-01-06T02:49:38.114Z,2.03
2023-01-06T02:52:39.177Z,1.88
2023-01-06T02:55:28.508Z,1.75
2023-01-06T02:58:15.490Z,2.13
2023-01-06T03:01:02.882Z,2.03
2023-01-06T03:03:35.732Z,2.10
2023-01-06T03:06:17.986Z,1.70
2023-01-06T03:08:51.723Z,1.90
2023-01-06T03:11:18.955Z,2.08
2023-01-06T03:14:29.608Z,1.38
2023-01-06T03:16:57.129Z,2.17
2023-01-06T03:19:25.384Z,1.90
2023-01-06T03:21:53.523Z,2.33
2023-01-06T03:24:20.861Z,1.80
2023-01-06T03:26:51.207Z,2.30
2023-01-06T03:29:19.259Z,2.28
2023-01-06T03:31:56.202Z,2.35
2023-01-06T03:34:55.522Z,1.90
2023-01-06T03:38:16.648Z,2.17
2023-01-06T03:41:00.476Z,2.58
2023-01-06T03:43:45.259Z,2.00
2023-01-06T03:46:17.679Z,2.38
2023-01-06T03:49:09.474Z,2.80
2023-01-06T03:52:10.039Z,2.00
2023-01-06T03:55:09.124Z,3.17
2023-01-06T03:57:46.346Z,2.58
2023-01-06T04:00:24.985Z,2.38
2023-01-06T04:02:52.459Z,2.33
2023-01-06T04:05:26.473Z,2.30
2023-01-06T04:07:54.016Z,2.17
2023-01-06T04:10:22.808Z,2.13
2023-01-06T04:12:50.227Z,2.95
2023-01-06T04:15:21.417Z,2.72
2023-01-06T04:17:49.095Z,2.00
2023-01-06T04:20:19.961Z,2.50
2023-01-06T04:22:47.497Z,1.85
2023-01-06T04:25:15.013Z,2.30
2023-01-06T04:27:43.959Z,2.22
2023-01-06T04:30:12.006Z,2.40
2023-01-06T04:32:39.823Z,2.97
2023-01-06T04:35:08.310Z,2.42
2023-01-06T04:37:36.805Z,2.30
2023-01-06T04:40:04.702Z,2.80
2023-01-06T04:42:51.769Z,2.10
2023-01-06T04:45:18.948Z,1.95
2023-01-06T04:47:46.423Z,2.15
2023-01-06T04:50:13.576Z,2.30
2023-01-06T04:52:40.693Z,2.40
2023-01-06T04:55:08.907Z,2.25
2023-01-06T04:57:36.066Z,2.60
2023-01-06T05:00:04.307Z,2.92
2023-01-06T05:02:33.313Z,2.05
2023-01-06T05:05:00.437Z,2.80
2023-01-06T05:07:27.651Z,2.42
2023-01-06T05:09:54.836Z,2.53
2023-01-06T05:12:22.169Z,2.58
2023-01-06T05:14:49.343Z,2.63
2023-01-06T05:17:16.592Z,2.35
2023-01-06T05:19:44.534Z,1.98
2023-01-06T05:22:12.443Z,2.28
2023-01-06T05:24:58.802Z,2.38
2023-01-06T05:29:53.074Z,2.63
2023-01-06T05:32:20.259Z,2.90
2023-01-06T05:34:47.409Z,2.47
2023-01-06T05:37:14.554Z,2.80
2023-01-06T05:39:41.702Z,2.35
2023-01-06T05:42:08.870Z,2.90
2023-01-06T05:44:35.994Z,2.53
2023-01-06T05:47:03.128Z,2.83
2023-01-06T05:49:30.475Z,2.90
2023-01-06T05:51:57.566Z,2.90
2023-01-06T05:54:24.822Z,3.25
2023-01-06T05:56:51.901Z,3.10
2023-01-06T05:59:19.021Z,2.97
2023-01-06T06:01:50.206Z,2.90
2023-01-06T06:04:17.318Z,3.28
2023-01-06T06:06:44.508Z,2.80
2023-01-06T06:09:11.703Z,2.50
2023-01-06T06:11:38.931Z,2.83
2023-01-06T06:14:10.861Z,2.95
2023-01-06T06:16:38.047Z,3.10
2023-01-06T06:19:05.219Z,3.88
2023-01-06T06:21:32.499Z,3.72
2023-01-06T06:24:00.965Z,3.17
2023-01-06T06:26:28.255Z,3.20
2023-01-06T06:28:56.016Z,2.40
2023-01-06T06:31:29.144Z,3.05
2023-01-06T06:34:02.230Z,3.25
2023-01-06T06:36:30.775Z,3.35
2023-01-06T06:38:58.695Z,3.08
2023-01-06T06:41:26.363Z,3.40
2023-01-06T06:43:53.747Z,3.42
2023-01-06T06:46:21.668Z,3.65
2023-01-06T06:48:50.213Z,3.88
2023-01-06T06:51:21.214Z,4.03
2023-01-06T06:53:49.069Z,3.78
2023-01-06T06:56:18.155Z,4.30
2023-01-06T06:58:45.768Z,5.10
2023-01-06T07:01:17.268Z,5.43
2023-01-06T07:03:44.877Z,4.18
2023-01-06T07:06:16.481Z,5.38
2023-01-06T07:08:45.596Z,4.40
2023-01-06T07:11:13.122Z,4.95
2023-01-06T07:13:40.524Z,3.92
2023-01-06T07:16:08.703Z,4.47
2023-01-06T07:18:36.710Z,4.97
2023-01-06T07:21:06.112Z,4.65
2023-01-06T07:23:33.812Z,4.45
2023-01-06T07:26:02.867Z,4.45
2023-01-06T07:28:32.975Z,4.45
2023-01-06T07:31:01.440Z,4.50
2023-01-06T07:33:29.503Z,5.50
2023-01-06T07:35:58.218Z,5.35
2023-01-06T07:38:25.923Z,5.50
2023-01-06T07:40:53.277Z,5.20
2023-01-06T07:43:20.655Z,4.78
2023-01-06T07:45:49.185Z,3.85
2023-01-06T07:48:17.000Z,4.35
2023-01-06T07:50:44.387Z,4.75
2023-01-06T07:53:12.673Z,4.85
2023-01-06T07:55:39.826Z,5.40
2023-01-06T07:58:09.107Z,4.95
2023-01-06T08:00:36.974Z,5.35
2023-01-06T08:03:07.255Z,4.95
2023-01-06T08:05:41.464Z,5.50
2023-01-06T08:08:12.695Z,3.90
2023-01-06T08:10:43.415Z,4.05
2023-01-06T08:13:19.579Z,3.65
2023-01-06T08:15:51.889Z,3.88
2023-01-06T08:18:19.499Z,4.28
2023-01-06T08:20:46.677Z,4.43
2023-01-06T08:23:14.044Z,5.53
2023-01-06T08:25:41.134Z,6.85
2023-01-06T08:28:08.242Z,6.10
2023-01-06T08:30:40.045Z,6.97
2023-01-06T08:33:07.310Z,4.20
2023-01-06T08:35:37.629Z,5.35
2023-01-06T08:38:04.776Z,5.43
2023-01-06T08:40:31.902Z,5.72
2023-01-06T08:42:59.127Z,5.60
2023-01-06T08:45:26.390Z,4.30
2023-01-06T08:47:53.508Z,4.82
2023-01-06T08:50:20.891Z,5.13
2023-01-06T08:52:48.416Z,4.53
2023-01-06T08:55:15.683Z,4.30
2023-01-06T08:57:42.927Z,3.88
2023-01-06T09:00:10.808Z,4.63
2023-01-06T09:02:38.156Z,3.42
2023-01-06T09:05:06.259Z,2.97
2023-01-06T09:07:33.445Z,4.20
2023-01-06T09:10:00.585Z,3.80
2023-01-06T09:12:27.831Z,3.90
2023-01-06T09:14:55.091Z,4.60
2023-01-06T09:17:25.524Z,4.35
2023-01-06T09:19:52.788Z,4.40
2023-01-06T09:22:19.994Z,5.80
2023-01-06T09:24:47.150Z,6.03
2023-01-06T09:27:14.725Z,4.97
2023-01-06T09:29:42.770Z,6.40
2023-01-06T09:32:10.398Z,5.68
2023-01-06T09:34:37.720Z,5.35
2023-01-06T09:37:05.171Z,4.82
2023-01-06T09:39:32.289Z,4.90
2023-01-06T09:42:29.911Z,4.20
2023-01-06T09:45:21.149Z,5.07
2023-01-06T09:47:59.129Z,5.78
2023-01-06T09:50:37.112Z,5.03
2023-01-06T09:53:29.235Z,5.03
2023-01-06T09:56:01.300Z,5.47
2023-01-06T09:58:46.317Z,4.22
2023-01-06T10:01:19.312Z,3.97
2023-01-06T10:03:48.290Z,4.18
2023-01-06T10:06:21.079Z,3.85
2023-01-06T10:09:25.427Z,3.67
2023-01-06T10:12:07.475Z,3.58
2023-01-06T10:14:40.619Z,2.78
2023-01-06T10:17:51.694Z,2.53
2023-01-06T10:20:44.697Z,2.45
2023-01-06T10:23:38.041Z,3.15
2023-01-06T10:26:22.924Z,3.00
2023-01-06T10:28:54.240Z,3.58
2023-01-06T10:31:26.194Z,3.67
2023-01-06T10:33:56.991Z,3.90
2023-01-06T10:36:42.670Z,4.80
2023-01-06T10:39:24.457Z,4.30
2023-01-06T10:42:57.686Z,4.72
2023-01-06T10:45:32.337Z,4.05
2023-01-06T10:48:00.715Z,3.60
2023-01-06T10:50:28.212Z,4.05
2023-01-06T10:52:55.303Z,4.32
2023-01-06T10:55:48.749Z,3.95
2023-01-06T10:58:35.837Z,3.50
2023-01-06T11:01:15.792Z,4.15
2023-01-06T11:03:45.098Z,3.63
2023-01-06T11:06:26.050Z,4.90
2023-01-06T11:08:57.291Z,4.00
2023-01-06T11:11:29.295Z,3.55
2023-01-06T11:14:03.506Z,3.67
2023-01-06T11:16:37.153Z,4.18
2023-01-06T11:19:08.023Z,3.85
2023-01-06T11:21:49.074Z,3.55
2023-01-06T11:24:24.689Z,3.40
2023-01-06T11:26:57.965Z,3.47
2023-01-06T11:29:28.117Z,2.97
2023-01-06T11:31:58.731Z,3.35
2023-01-06T11:34:29.171Z,2.95
2023-01-06T11:36:57.455Z,4.97
2023-01-06T11:39:35.717Z,3.95
2023-01-06T11:42:14.645Z,3.72
2023-01-06T11:44:43.333Z,3.58
2023-01-06T11:47:26.449Z,3.63
2023-01-06T11:50:01.197Z,4.07
2023-01-06T11:52:31.442Z,3.58
2023-01-06T11:55:01.744Z,2.58
2023-01-06T11:57:37.986Z,2.83
2023-01-06T12:00:19.070Z,2.67
2023-01-06T12:02:58.092Z,2.78
2023-01-06T12:05:37.112Z,2.92
2023-01-06T12:08:35.843Z,2.70
2023-01-06T12:11:14.065Z,3.05
2023-01-06T12:13:44.692Z,3.00
2023-01-06T12:16:40.320Z,2.50
2023-01-06T12:19:20.117Z,2.88
2023-01-06T12:21:51.511Z,2.58
2023-01-06T12:24:21.637Z,2.50
2023-01-06T12:26:50.447Z,5.60
2023-01-06T12:29:21.233Z,4.25
2023-01-06T12:32:13.465Z,3.25
2023-01-06T12:34:48.587Z,4.80
2023-01-06T12:37:38.004Z,3.90
2023-01-06T12:40:48.785Z,2.80
2023-01-06T12:43:22.512Z,2.90
2023-01-06T12:46:09.471Z,3.50
2023-01-06T12:48:50.626Z,3.15
2023-01-06T12:51:44.531Z,2.22
2023-01-06T12:54:18.691Z,3.00
2023-01-06T12:57:26.880Z,3.75
2023-01-06T13:00:14.905Z,2.60
2023-01-06T13:03:24.136Z,3.08
2023-01-06T13:06:13.651Z,2.88
2023-01-06T13:09:19.544Z,2.55
2023-01-06T13:12:35.097Z,2.28
2023-01-06T13:15:24.636Z,2.10
2023-01-06T13:18:13.124Z,2.15
2023-01-06T13:20:49.520Z,2.20
2023-01-06T13:23:48.667Z,2.40
2023-01-06T13:26:43.396Z,2.38
2023-01-06T13:29:46.502Z,2.17
2023-01-06T13:32:53.372Z,2.42
2023-01-06T13:35:52.746Z,2.10
2023-01-06T13:38:58.539Z,2.15
2023-01-06T13:41:40.796Z,1.90
2023-01-06T13:44:27.024Z,1.67
2023-01-06T13:47:18.790Z,1.77
2023-01-06T13:49:47.094Z,1.40
2023-01-06T13:52:25.218Z,1.40
2023-01-06T13:54:52.421Z,1.48
2023-01-06T13:57:22.352Z,1.52
2023-01-06T14:00:05.159Z,1.83
2023-01-06T14:02:35.425Z,1.23
2023-01-06T14:05:07.596Z,1.25
2023-01-06T14:07:41.151Z,1.67
2023-01-06T14:10:33.066Z,1.30
2023-01-06T14:13:02.139Z,1.60
2023-01-06T14:15:35.647Z,1.30
2023-01-06T14:18:03.920Z,1.45
2023-01-06T14:20:38.537Z,1.45
2023-01-06T14:23:23.952Z,1.42
2023-01-06T14:25:57.362Z,1.25
2023-01-06T14:28:30.231Z,1.60
2023-01-06T14:31:31.186Z,1.70
2023-01-06T14:34:03.235Z,1.52
2023-01-06T14:36:34.610Z,1.70
2023-01-06T14:39:08.888Z,2.65
2023-01-06T14:41:45.429Z,2.45
2023-01-06T14:44:34.726Z,2.35
2023-01-06T14:47:08.217Z,3.17
2023-01-06T14:49:56.500Z,3.03
2023-01-06T14:52:33.628Z,2.50
2023-01-06T14:55:03.385Z,2.30
2023-01-06T14:57:35.480Z,2.05
2023-01-06T15:00:29.898Z,1.85
2023-01-06T15:03:17.517Z,2.10
2023-01-06T15:05:45.080Z,2.67
2023-01-06T15:08:12.057Z,2.55
2023-01-06T15:10:41.459Z,3.92
2023-01-06T15:13:27.032Z,2.60
2023-01-06T15:16:00.870Z,3.92
2023-01-06T15:18:28.126Z,4.53
2023-01-06T15:20:55.761Z,4.25
2023-01-06T15:23:22.914Z,26.00
2023-01-06T15:25:52.494Z,19.15
2023-01-06T15:28:36.083Z,7.53
2023-01-06T15:31:03.462Z,3.10
2023-01-06T15:33:40.116Z,2.58
2023-01-06T15:36:08.222Z,2.20
2023-01-06T15:38:39.245Z,2.33
2023-01-06T15:41:26.786Z,1.95
2023-01-06T15:43:54.151Z,2.50
2023-01-06T15:46:21.386Z,2.60
2023-01-06T15:48:49.474Z,2.40
2023-01-06T15:51:22.225Z,2.28
2023-01-06T15:53:56.096Z,1.88
2023-01-06T15:56:27.453Z,2.47
2023-01-06T15:58:58.032Z,2.00
2023-01-06T16:01:25.472Z,2.65
2023-01-06T16:03:59.822Z,4.35
2023-01-06T16:06:31.856Z,3.53
2023-01-06T16:09:20.718Z,4.13
2023-01-06T16:12:19.843Z,3.65
2023-01-06T16:14:49.522Z,4.68
2023-01-06T16:17:34.641Z,4.20
2023-01-06T16:20:20.944Z,3.78
2023-01-06T16:25:30.619Z,3.80
2023-01-06T16:28:04.988Z,3.17
2023-01-06T16:30:36.709Z,3.60
2023-01-06T16:33:04.990Z,2.83
2023-01-06T16:35:34.510Z,4.20
2023-01-06T16:38:06.712Z,3.63
2023-01-06T16:40:33.891Z,4.78
2023-01-06T16:43:03.034Z,3.40
2023-01-06T16:45:47.498Z,3.80
2023-01-06T16:48:17.190Z,3.50
2023-01-06T16:50:50.300Z,3.85
2023-01-06T16:53:21.009Z,3.90
2023-01-06T16:55:59.974Z,4.32
2023-01-06T16:58:32.940Z,4.40
2023-01-06T17:01:12.567Z,4.70
2023-01-06T17:03:40.252Z,4.22
2023-01-06T17:06:23.483Z,4.93
2023-01-06T17:08:51.871Z,4.18
2023-01-06T17:11:24.231Z,3.83
2023-01-06T17:14:09.033Z,3.90
2023-01-06T17:16:41.550Z,4.00
2023-01-06T17:19:28.384Z,4.10
2023-01-06T17:22:20.898Z,3.75
2023-01-06T17:24:48.198Z,4.55
2023-01-06T17:27:30.131Z,4.03
2023-01-06T17:30:01.895Z,4.32
2023-01-06T17:32:41.400Z,4.28
2023-01-06T17:35:29.751Z,4.13
2023-01-06T17:38:13.096Z,4.63
2023-01-06T17:40:40.344Z,4.28
2023-01-06T17:43:21.579Z,3.75
2023-01-06T17:45:55.615Z,4.10
2023-01-06T17:48:23.456Z,3.55
2023-01-06T17:50:55.936Z,4.15
2023-01-06T17:53:52.352Z,4.18
2023-01-06T17:56:23.095Z,4.28
2023-01-06T17:58:50.628Z,4.50
2023-01-06T18:01:30.400Z,5.35
2023-01-06T18:04:00.042Z,4.47
2023-01-06T18:06:39.461Z,4.43
2023-01-06T18:09:21.261Z,4.53
2023-01-06T18:11:51.473Z,7.63
2023-01-06T18:14:39.040Z,9.45
2023-01-06T18:17:27.675Z,7.45
2023-01-06T18:19:55.291Z,8.38
2023-01-06T18:22:26.329Z,8.48
2023-01-06T18:24:57.972Z,8.73
2023-01-06T18:27:34.787Z,9.60
2023-01-06T18:30:21.586Z,11.75
2023-01-06T18:32:50.639Z,10.13
2023-01-06T18:35:27.847Z,11.50
2023-01-06T18:37:59.976Z,10.07
2023-01-06T18:40:27.998Z,9.35
2023-01-06T18:42:56.536Z,10.40
2023-01-06T18:45:36.424Z,10.02
2023-01-06T18:48:25.299Z,8.85
2023-01-06T18:50:54.070Z,9.10
2023-01-06T18:53:44.708Z,7.50
2023-01-06T18:56:27.055Z,7.28
2023-01-06T18:58:57.462Z,6.80
2023-01-06T19:01:45.061Z,6.60
2023-01-06T19:04:38.997Z,6.28
2023-01-06T19:07:22.872Z,7.30
2023-01-06T19:09:50.816Z,7.45
2023-01-06T19:12:32.789Z,7.15
2023-01-06T19:15:21.327Z,5.45
2023-01-06T19:17:50.149Z,3.80
2023-01-06T19:20:29.311Z,4.00
2023-01-06T19:22:57.269Z,3.85
2023-01-06T19:25:48.806Z,4.07
2023-01-06T19:28:29.760Z,3.78
2023-01-06T19:31:03.098Z,3.90
2023-01-06T19:33:50.314Z,4.60
2023-01-06T19:36:43.086Z,5.40
2023-01-06T19:39:25.658Z,4.63
2023-01-06T19:41:58.307Z,5.35
2023-01-06T19:44:35.782Z,5.50
2023-01-06T19:47:31.837Z,6.70
2023-01-06T19:50:12.645Z,5.50
2023-01-06T19:52:41.794Z,5.30
2023-01-06T19:55:26.080Z,4.43
2023-01-06T19:58:15.989Z,4.75
2023-01-06T20:00:52.516Z,4.50
2023-01-06T20:03:33.952Z,5.10
2023-01-06T20:06:02.877Z,4.75
2023-01-06T20:08:30.311Z,4.82
2023-01-06T20:10:57.564Z,4.50
2023-01-06T20:13:28.187Z,3.85
2023-01-06T20:15:58.288Z,3.75
2023-01-06T20:18:25.955Z,3.58
2023-01-06T20:20:53.494Z,3.30
2023-01-06T20:23:21.167Z,4.20
2023-01-06T20:25:48.646Z,4.18
2023-01-06T20:28:16.904Z,4.10
2023-01-06T20:30:46.497Z,3.00
2023-01-06T20:33:14.850Z,2.78
2023-01-06T20:35:42.292Z,2.85
2023-01-06T20:38:09.900Z,2.63
2023-01-06T20:40:37.132Z,2.70
2023-01-06T20:43:04.819Z,2.90
2023-01-06T20:45:32.469Z,3.10
2023-01-06T20:47:59.699Z,2.55
2023-01-06T20:50:28.154Z,2.40
2023-01-06T20:52:56.029Z,2.75
2023-01-06T20:55:23.922Z,2.90
2023-01-06T20:57:51.223Z,3.40
2023-01-06T21:00:18.862Z,2.95
2023-01-06T21:02:47.400Z,3.08
2023-01-06T21:05:14.981Z,4.05
2023-01-06T21:07:42.250Z,4.13
2023-01-06T21:10:09.818Z,4.85
2023-01-06T21:12:37.357Z,4.45
2023-01-06T21:15:07.021Z,4.53
2023-01-06T21:17:34.391Z,4.70
2023-01-06T21:20:01.934Z,5.28
2023-01-06T21:22:29.286Z,5.10
2023-01-06T21:24:56.612Z,4.88
2023-01-06T21:27:23.775Z,4.95
2023-01-06T21:29:51.020Z,4.78
2023-01-06T21:32:18.127Z,4.72
2023-01-06T21:34:45.285Z,5.47
2023-01-06T21:37:12.443Z,5.28
2023-01-06T21:39:39.586Z,5.28
2023-01-06T21:42:25.594Z,5.78
2023-01-06T21:44:52.817Z,5.20
2023-01-06T21:47:20.123Z,4.88
2023-01-06T21:49:47.498Z,5.22
2023-01-06T21:52:15.904Z,5.72
2023-01-06T21:54:44.816Z,5.50
2023-01-06T21:57:13.067Z,4.47
2023-01-06T21:59:40.319Z,5.13
2023-01-06T22:02:09.186Z,5.10
2023-01-06T22:04:36.608Z,4.57
2023-01-06T22:07:06.605Z,4.75
2023-01-06T22:09:43.068Z,4.43
2023-01-06T22:12:13.192Z,5.45
2023-01-06T22:14:40.930Z,4.20
2023-01-06T22:17:08.552Z,5.15
2023-01-06T22:19:36.343Z,4.70
2023-01-06T22:22:04.050Z,4.40
2023-01-06T22:24:32.708Z,4.32
2023-01-06T22:26:59.883Z,4.13
2023-01-06T22:29:27.105Z,3.95
2023-01-06T22:31:54.204Z,4.57
2023-01-06T22:34:21.300Z,4.03
2023-01-06T22:36:48.425Z,3.67
2023-01-06T22:39:16.036Z,3.85
2023-01-06T22:41:43.153Z,3.88
2023-01-06T22:44:10.343Z,3.58
2023-01-06T22:46:37.521Z,3.85
2023-01-06T22:49:05.188Z,3.72
2023-01-06T22:51:32.786Z,3.45
2023-01-06T22:53:59.968Z,4.32
2023-01-06T22:56:27.083Z,3.22
2023-01-06T22:58:54.317Z,3.60
2023-01-06T23:01:22.423Z,3.97
2023-01-06T23:03:49.748Z,3.78
2023-01-06T23:06:17.715Z,3.47
2023-01-06T23:08:59.020Z,4.00
2023-01-06T23:11:28.856Z,4.10
2023-01-06T23:13:59.131Z,3.13
2023-01-06T23:16:29.024Z,3.75
2023-01-06T23:18:59.073Z,3.50
2023-01-06T23:21:29.170Z,3.20
2023-01-06T23:23:57.009Z,2.75
2023-01-06T23:26:28.262Z,3.20
2023-01-06T23:28:56.506Z,3.10
2023-01-06T23:31:30.820Z,3.20
2023-01-06T23:34:03.693Z,3.92
2023-01-06T23:36:34.355Z,2.70
2023-01-06T23:39:04.059Z,3.30
2023-01-06T23:41:34.561Z,2.72
2023-01-06T23:44:02.457Z,3.38
2023-01-06T23:46:37.670Z,2.97
2023-01-06T23:49:06.229Z,2.80
2023-01-06T23:51:34.434Z,3.55
2023-01-06T23:54:06.301Z,3.20
2023-01-06T23:56:36.176Z,3.70
2023-01-06T23:59:06.313Z,4.13
